Time;durP1;ratioP1;P1;durP2;ratioP2;P2;SDS_P1;SDS_P2;PMS_P1;PMS_P2;Temp;Humidity;BMP_temperature;BMP_pressure;BME280_temperature;BME280_humidity;BME280_pressure;Samples;Min_cycle;Max_cycle;Signal;HPM_P1;HPM_P2
2021/03/25 00:01:34;;;;;;;34.45;16.17;;;5.90;86.10;;;;;;5034860;28;20505;-77
2021/03/25 00:03:59;;;;;;;41.97;17.88;;;5.90;85.90;;;;;;5016172;28;20022;-77
2021/03/25 00:06:26;;;;;;;44.75;18.50;;;5.70;86.40;;;;;;5034372;28;20028;-77
2021/03/25 00:08:52;;;;;;;42.78;17.63;;;5.40;87.70;;;;;;5021448;28;20115;-77
2021/03/25 00:11:18;;;;;;;41.65;20.65;;;5.10;88.10;;;;;;5023746;28;20029;-77
2021/03/25 00:13:43;;;;;;;45.03;18.42;;;5.10;89.50;;;;;;5025310;28;20036;-77
2021/03/25 00:16:09;;;;;;;38.08;18.25;;;5.20;89.00;;;;;;5012516;28;20037;-77
2021/03/25 00:18:35;;;;;;;31.88;15.60;;;5.10;89.20;;;;;;5010986;28;20029;-77
2021/03/25 00:21:01;;;;;;;35.85;14.43;;;5.40;87.80;;;;;;5013263;28;20500;-77
2021/03/25 00:23:27;;;;;;;46.85;19.25;;;5.50;87.40;;;;;;5028980;28;20052;-77
2021/03/25 00:25:53;;;;;;;42.30;19.63;;;5.30;87.40;;;;;;5016184;28;20106;-77
2021/03/25 00:28:18;;;;;;;47.92;19.17;;;5.20;88.00;;;;;;5018438;28;20480;-77
2021/03/25 00:30:44;;;;;;;44.67;20.00;;;5.10;88.80;;;;;;5012886;28;20045;-77
2021/03/25 00:33:11;;;;;;;41.00;18.48;;;5.00;88.80;;;;;;5004550;28;20037;-77
2021/03/25 00:35:37;;;;;;;46.45;19.45;;;4.70;89.40;;;;;;5035950;28;20026;-77
2021/03/25 00:38:03;;;;;;;54.65;23.05;;;4.60;90.00;;;;;;5030523;28;20610;-77
2021/03/25 00:40:28;;;;;;;35.17;17.02;;;4.70;90.30;;;;;;5011146;28;20400;-77
2021/03/25 00:42:54;;;;;;;32.00;13.80;;;4.80;90.10;;;;;;5014879;28;20044;-77
2021/03/25 00:45:32;;;;;;;33.03;15.70;;;5.00;89.20;;;;;;5028123;28;20492;-77
2021/03/25 00:47:57;;;;;;;41.45;18.95;;;5.10;87.90;;;;;;5045091;28;20029;-77
2021/03/25 00:50:33;;;;;;;36.63;18.08;;;4.90;88.30;;;;;;5035857;28;20029;-77
2021/03/25 00:52:59;;;;;;;37.78;18.75;;;4.80;88.80;;;;;;5048544;28;20055;-77
2021/03/25 00:55:27;;;;;;;45.17;20.48;;;4.70;89.80;;;;;;5016231;28;20033;-77
2021/03/25 00:57:53;;;;;;;29.85;14.57;;;4.70;89.50;;;;;;5026701;28;20042;-77
2021/03/25 01:00:22;;;;;;;42.33;18.70;;;4.80;89.00;;;;;;5032319;28;20025;-77
2021/03/25 01:02:47;;;;;;;36.70;16.38;;;4.70;88.90;;;;;;5005225;28;20041;-77
2021/03/25 01:05:13;;;;;;;41.40;17.83;;;4.70;89.10;;;;;;5011262;28;20033;-77
2021/03/25 01:07:39;;;;;;;44.13;18.35;;;4.60;89.30;;;;;;5009210;28;20056;-77
2021/03/25 01:10:10;;;;;;;39.75;17.45;;;4.50;89.40;;;;;;5016366;28;20044;-76
2021/03/25 01:12:36;;;;;;;30.20;14.25;;;4.50;89.40;;;;;;5037978;28;20033;-76
2021/03/25 01:15:02;;;;;;;31.17;14.07;;;4.50;89.20;;;;;;5017982;28;20071;-76
2021/03/25 01:17:28;;;;;;;28.60;14.23;;;4.60;89.10;;;;;;5029677;28;20036;-76
2021/03/25 01:19:53;;;;;;;32.97;14.55;;;4.60;88.80;;;;;;5031497;28;20087;-76
2021/03/25 01:22:19;;;;;;;33.72;15.48;;;4.50;88.60;;;;;;5017879;28;20124;-77
2021/03/25 01:24:44;;;;;;;25.63;13.35;;;4.50;87.90;;;;;;5018149;28;20029;-77
2021/03/25 01:27:10;;;;;;;34.22;14.07;;;4.40;88.10;;;;;;5034782;28;20167;-76
2021/03/25 01:29:35;;;;;;;32.63;15.38;;;4.30;88.90;;;;;;5033429;28;20040;-77
2021/03/25 01:32:01;;;;;;;46.33;17.90;;;4.30;89.30;;;;;;5038369;28;20079;-77
2021/03/25 01:34:27;;;;;;;40.78;18.33;;;4.20;89.90;;;;;;5031545;28;20029;-77
2021/03/25 01:36:52;;;;;;;36.80;17.13;;;4.20;90.20;;;;;;5016155;28;20064;-77
2021/03/25 01:39:18;;;;;;;43.05;18.90;;;4.20;89.90;;;;;;5017276;28;20542;-77
2021/03/25 01:41:43;;;;;;;46.13;19.45;;;4.20;90.00;;;;;;5016296;28;20025;-77
2021/03/25 01:44:29;;;;;;;46.83;18.52;;;4.20;90.20;;;;;;5013520;28;20022;-77
2021/03/25 01:46:55;;;;;;;43.78;21.00;;;4.10;90.20;;;;;;5049646;28;20027;-77
2021/03/25 01:49:20;;;;;;;52.00;21.30;;;4.10;90.50;;;;;;5018189;28;20028;-77
2021/03/25 01:52:05;;;;;;;49.92;19.73;;;4.00;90.60;;;;;;5032268;28;20380;-77
2021/03/25 01:54:33;;;;;;;49.05;21.13;;;4.00;90.50;;;;;;5040672;28;20129;-77
2021/03/25 01:57:37;;;;;;;50.83;21.45;;;3.60;91.20;;;;;;5051748;28;20033;-77
2021/03/25 02:00:07;;;;;;;54.80;21.73;;;3.50;91.80;;;;;;5051789;28;20495;-77
2021/03/25 02:02:37;;;;;;;53.67;22.35;;;3.60;91.90;;;;;;5033707;28;20118;-77
2021/03/25 02:05:21;;;;;;;50.67;21.90;;;3.70;91.50;;;;;;5051250;28;20076;-77
2021/03/25 02:07:57;;;;;;;47.75;20.27;;;3.80;91.50;;;;;;5054668;28;20111;-77
2021/03/25 02:10:25;;;;;;;;;;;3.90;90.30;;;;;;5038906;28;20035;-77
2021/03/25 02:13:15;;;;;;;46.33;20.15;;;4.00;90.70;;;;;;5033962;28;20368;-77
2021/03/25 02:15:47;;;;;;;53.55;21.55;;;3.90;90.90;;;;;;5016989;28;20032;-77
2021/03/25 02:18:29;;;;;;;51.80;21.80;;;3.70;91.40;;;;;;5051046;28;20392;-77
2021/03/25 02:21:25;;;;;;;54.30;21.98;;;3.70;92.20;;;;;;5042488;28;20029;-77
2021/03/25 02:24:19;;;;;;;51.13;22.38;;;3.70;92.40;;;;;;5030825;28;20029;-77
2021/03/25 02:26:54;;;;;;;55.30;22.52;;;3.70;92.30;;;;;;5025472;28;20111;-77
2021/03/25 02:29:45;;;;;;;58.17;23.80;;;3.70;92.40;;;;;;5058190;28;20089;-77
2021/03/25 02:32:21;;;;;;;62.33;24.45;;;3.90;92.30;;;;;;5049765;28;20025;-77
2021/03/25 02:34:49;;;;;;;56.17;24.15;;;4.00;91.90;;;;;;5014340;28;20544;-77
2021/03/25 02:37:24;;;;;;;59.47;21.60;;;4.00;92.00;;;;;;5027498;28;20021;-77
2021/03/25 02:40:10;;;;;;;51.65;21.35;;;4.20;91.60;;;;;;5026379;28;20083;-77
2021/03/25 02:42:53;;;;;;;43.47;20.50;;;4.30;90.80;;;;;;5067200;28;20037;-77
2021/03/25 02:45:20;;;;;;;53.42;22.42;;;4.20;91.60;;;;;;5032843;28;20036;-77
2021/03/25 02:47:47;;;;;;;54.80;22.60;;;4.10;92.00;;;;;;5047966;28;20424;-77
2021/03/25 02:50:17;;;;;;;40.65;18.33;;;4.10;91.70;;;;;;5030332;28;20033;-77
2021/03/25 02:52:45;;;;;;;48.10;22.73;;;4.20;90.50;;;;;;5009576;28;20481;-77
2021/03/25 02:55:12;;;;;;;47.50;21.65;;;4.20;90.80;;;;;;5017593;28;20033;-77
2021/03/25 02:58:17;;;;;;;54.83;21.48;;;4.20;91.10;;;;;;5034132;28;20036;-77
2021/03/25 03:00:58;;;;;;;45.75;21.27;;;4.10;91.70;;;;;;5046597;28;20021;-77
2021/03/25 03:03:31;;;;;;;46.42;20.50;;;4.20;91.40;;;;;;5044071;28;20085;-77
2021/03/25 03:05:56;;;;;;;41.45;18.45;;;4.00;92.10;;;;;;5017934;28;20025;-77
2021/03/25 03:08:27;;;;;;;31.65;15.43;;;4.10;92.10;;;;;;5027921;28;20040;-77
2021/03/25 03:10:54;;;;;;;40.30;18.48;;;4.20;91.00;;;;;;5016244;28;20501;-77
2021/03/25 03:13:23;;;;;;;43.28;20.55;;;4.30;90.90;;;;;;5027839;28;20036;-76
2021/03/25 03:16:02;;;;;;;45.97;20.55;;;4.10;91.70;;;;;;5010327;28;20029;-77
2021/03/25 03:18:48;;;;;;;50.22;20.00;;;4.10;92.50;;;;;;5011227;28;20120;-77
2021/03/25 03:21:21;;;;;;;50.17;20.38;;;4.10;92.70;;;;;;5049649;28;20472;-77
2021/03/25 03:23:46;;;;;;;48.13;22.88;;;4.30;92.20;;;;;;5042561;28;20388;-77
2021/03/25 03:26:16;;;;;;;46.85;19.75;;;4.20;92.20;;;;;;5033017;28;20033;-77
2021/03/25 03:28:46;;;;;;;49.80;20.13;;;4.10;92.70;;;;;;5016869;28;20392;-77
2021/03/25 03:31:15;;;;;;;51.58;21.52;;;4.10;93.00;;;;;;5034171;28;20065;-77
2021/03/25 03:33:48;;;;;;;46.85;21.58;;;4.10;92.90;;;;;;5029120;28;20480;-77
2021/03/25 03:36:18;;;;;;;50.55;21.88;;;4.10;93.20;;;;;;5022855;28;20051;-76
2021/03/25 03:39:01;;;;;;;44.22;19.92;;;4.20;92.90;;;;;;5010432;28;20044;-77
2021/03/25 03:41:33;;;;;;;53.90;22.73;;;4.10;92.80;;;;;;5016310;28;20511;-77
2021/03/25 03:43:59;;;;;;;49.17;22.38;;;4.10;92.70;;;;;;5009999;28;20029;-77
2021/03/25 03:46:27;;;;;;;32.15;15.27;;;4.20;92.60;;;;;;5017664;28;20116;-77
2021/03/25 03:49:07;;;;;;;47.17;21.08;;;4.30;91.60;;;;;;5005962;28;20026;-77
2021/03/25 03:51:44;;;;;;;28.33;13.27;;;4.40;92.00;;;;;;5011106;28;20059;-77
2021/03/25 03:54:10;;;;;;;32.38;15.38;;;4.50;91.00;;;;;;5028560;28;20033;-77
2021/03/25 03:56:57;;;;;;;41.47;19.70;;;4.60;90.20;;;;;;5017120;28;20468;-77
2021/03/25 03:59:37;;;;;;;46.63;18.30;;;4.40;91.70;;;;;;5053951;28;20024;-77
2021/03/25 04:02:12;;;;;;;40.65;18.05;;;4.40;91.20;;;;;;5031612;28;20044;-77
2021/03/25 04:04:39;;;;;;;38.55;16.50;;;4.50;90.60;;;;;;5017597;28;20033;-77
2021/03/25 04:07:06;;;;;;;44.28;20.15;;;4.50;90.30;;;;;;5018594;28;20041;-77
2021/03/25 04:09:38;;;;;;;43.97;19.38;;;4.60;90.40;;;;;;5036014;28;20029;-77
2021/03/25 04:12:08;;;;;;;48.10;21.52;;;4.50;90.90;;;;;;5016168;28;20041;-77
2021/03/25 04:14:46;;;;;;;28.02;12.20;;;4.50;90.80;;;;;;5029985;28;20037;-77
2021/03/25 04:17:13;;;;;;;39.65;19.80;;;4.50;90.50;;;;;;5034799;28;20512;-77
2021/03/25 04:19:46;;;;;;;44.25;21.50;;;4.30;91.80;;;;;;5031703;28;20470;-77
2021/03/25 04:22:23;;;;;;;39.17;18.77;;;4.40;92.10;;;;;;5014647;28;20503;-77
2021/03/25 04:25:03;;;;;;;40.38;15.90;;;4.50;91.20;;;;;;5028322;28;20025;-77
2021/03/25 04:27:53;;;;;;;48.78;20.65;;;4.50;90.30;;;;;;5038980;28;20039;-77
2021/03/25 04:30:26;;;;;;;50.92;20.30;;;4.50;90.40;;;;;;5022399;28;20037;-77
2021/03/25 04:32:52;;;;;;;45.53;20.35;;;4.50;91.30;;;;;;5030017;28;20469;-77
2021/03/25 04:35:19;;;;;;;37.33;16.55;;;4.50;91.20;;;;;;5051831;28;20086;-77
2021/03/25 04:37:44;;;;;;;45.45;20.63;;;4.50;90.70;;;;;;5016732;28;20039;-77
2021/03/25 04:40:13;;;;;;;37.95;17.67;;;4.50;90.60;;;;;;5013373;28;20041;-77
2021/03/25 04:42:42;;;;;;;36.53;16.92;;;4.60;90.40;;;;;;5047505;28;20265;-77
2021/03/25 04:45:26;;;;;;;29.05;13.70;;;4.60;90.10;;;;;;5013527;28;20056;-77
2021/03/25 04:47:54;;;;;;;29.13;14.60;;;4.60;90.10;;;;;;5049897;28;20493;-77
2021/03/25 04:50:37;;;;;;;37.97;16.27;;;4.60;90.00;;;;;;5030252;28;20532;-77
2021/03/25 04:53:26;;;;;;;37.13;16.63;;;4.60;89.80;;;;;;5026469;28;20112;-77
2021/03/25 04:55:52;;;;;;;33.20;17.73;;;4.60;90.00;;;;;;5046312;28;20036;-77
2021/03/25 04:58:48;;;;;;;42.10;18.58;;;4.70;89.90;;;;;;5034127;28;20106;-77
2021/03/25 05:01:19;;;;;;;38.42;18.67;;;4.60;89.80;;;;;;5035738;28;20109;-77
2021/03/25 05:03:45;;;;;;;38.50;17.58;;;4.60;89.80;;;;;;5027119;28;20090;-77
2021/03/25 05:06:18;;;;;;;42.42;17.40;;;4.60;90.00;;;;;;5035334;28;20469;-77
2021/03/25 05:08:43;;;;;;;33.25;15.23;;;4.70;90.30;;;;;;5028977;28;20485;-77
2021/03/25 05:11:12;;;;;;;35.08;16.95;;;4.70;90.60;;;;;;5018416;28;20040;-77
2021/03/25 05:13:39;;;;;;;29.40;14.18;;;4.70;90.30;;;;;;5032402;28;20037;-77
2021/03/25 05:16:37;;;;;;;33.78;14.77;;;4.70;90.30;;;;;;5011658;28;20046;-77
2021/03/25 05:19:19;;;;;;;35.05;16.05;;;4.70;90.50;;;;;;5042703;28;20036;-77
2021/03/25 05:22:06;;;;;;;35.65;14.65;;;4.90;90.60;;;;;;5017453;28;20059;-77
2021/03/25 05:24:40;;;;;;;29.73;13.95;;;5.00;90.40;;;;;;5047024;28;20025;-77
2021/03/25 05:27:17;;;;;;;29.10;13.35;;;5.10;90.00;;;;;;5053985;28;20094;-77
2021/03/25 05:29:43;;;;;;;26.35;13.27;;;5.10;90.00;;;;;;5055095;28;20116;-77
2021/03/25 05:32:08;;;;;;;36.20;16.27;;;5.20;90.00;;;;;;5020990;28;20568;-77
2021/03/25 05:34:34;;;;;;;31.00;15.40;;;5.20;90.10;;;;;;5016916;28;20037;-77
2021/03/25 05:36:59;;;;;;;34.95;15.95;;;5.10;90.30;;;;;;5017838;28;20052;-77
2021/03/25 05:39:25;;;;;;;34.53;16.15;;;5.10;90.20;;;;;;5018673;28;20032;-77
2021/03/25 05:42:04;;;;;;;36.88;18.08;;;4.90;90.30;;;;;;5045307;28;20314;-77
2021/03/25 05:44:47;;;;;;;40.58;17.45;;;5.00;90.50;;;;;;5033081;28;20115;-77
2021/03/25 05:47:47;;;;;;;41.85;19.02;;;5.10;90.50;;;;;;5043474;28;20603;-77
2021/03/25 05:50:19;;;;;;;39.08;17.70;;;5.00;90.40;;;;;;5049697;28;20371;-78
2021/03/25 05:52:57;;;;;;;39.13;18.08;;;5.00;90.80;;;;;;5058462;28;20565;-76
2021/03/25 05:55:37;;;;;;;37.20;17.17;;;5.00;90.70;;;;;;5041085;28;20106;-77
2021/03/25 05:58:24;;;;;;;42.85;20.60;;;4.80;90.30;;;;;;5052411;28;20042;-77
2021/03/25 06:01:18;;;;;;;45.72;21.40;;;4.80;90.70;;;;;;5040400;28;20069;-77
2021/03/25 06:04:05;;;;;;;49.28;21.70;;;4.70;90.70;;;;;;5045474;28;20044;-77
2021/03/25 06:06:48;;;;;;;48.17;22.10;;;4.70;90.50;;;;;;5033678;28;20029;-77
2021/03/25 06:09:32;;;;;;;47.40;20.02;;;4.70;90.60;;;;;;5038966;28;20041;-77
2021/03/25 06:12:21;;;;;;;41.80;19.00;;;4.80;90.50;;;;;;5049188;28;20033;-77
2021/03/25 06:15:04;;;;;;;47.80;21.85;;;5.10;90.50;;;;;;5047826;28;20505;-78
2021/03/25 06:17:51;;;;;;;41.65;18.45;;;5.10;90.50;;;;;;5050257;28;20025;-78
2021/03/25 06:20:34;;;;;;;37.60;18.85;;;5.10;90.60;;;;;;5054502;28;20016;-78
2021/03/25 06:23:21;;;;;;;35.80;18.33;;;5.10;90.40;;;;;;5030608;28;20039;-77
2021/03/25 06:26:12;;;;;;;44.30;19.10;;;5.10;90.40;;;;;;5046966;28;20036;-78
2021/03/25 06:28:45;;;;;;;38.83;18.10;;;5.10;90.30;;;;;;5050552;28;20387;-77
2021/03/25 06:31:18;;;;;;;40.45;19.45;;;5.10;90.20;;;;;;5024882;28;20576;-78
2021/03/25 06:34:02;;;;;;;38.53;18.30;;;5.20;90.10;;;;;;5025354;28;20469;-77
2021/03/25 06:36:59;;;;;;;39.85;18.77;;;5.30;90.10;;;;;;5054557;28;20082;-79
2021/03/25 06:39:36;;;;;;;54.42;23.63;;;5.30;90.00;;;;;;5026241;28;20025;-78
2021/03/25 06:42:18;;;;;;;66.43;25.05;;;5.40;90.40;;;;;;5043857;28;20070;-78
2021/03/25 06:44:52;;;;;;;51.72;24.52;;;5.40;90.30;;;;;;5031641;28;20025;-77
2021/03/25 06:47:36;;;;;;;47.40;22.35;;;5.40;90.80;;;;;;5054849;28;20027;-78
2021/03/25 06:50:04;;;;;;;47.38;20.98;;;5.50;91.00;;;;;;5054552;28;20484;-78
2021/03/25 06:52:40;;;;;;;49.60;21.67;;;5.50;91.60;;;;;;5012288;28;20021;-78
2021/03/25 06:55:18;;;;;;;34.97;18.10;;;5.60;91.40;;;;;;5032324;28;20025;-78
2021/03/25 06:58:08;;;;;;;48.05;20.13;;;5.70;91.30;;;;;;5011080;28;20148;-78
2021/03/25 07:00:36;;;;;;;32.38;14.20;;;5.80;91.20;;;;;;5050252;28;20021;-78
2021/03/25 07:03:03;;;;;;;42.30;19.88;;;5.90;90.50;;;;;;5025047;28;20039;-78
2021/03/25 07:05:30;;;;;;;40.70;17.50;;;6.10;90.00;;;;;;5020171;28;20083;-78
2021/03/25 07:08:05;;;;;;;35.28;16.17;;;6.20;90.10;;;;;;5001562;28;20586;-78
2021/03/25 07:10:31;;;;;;;27.77;13.65;;;6.30;90.00;;;;;;5017644;28;20063;-78
2021/03/25 07:13:03;;;;;;;52.85;22.45;;;6.50;89.00;;;;;;5010069;28;20825;-78
2021/03/25 07:15:29;;;;;;;26.92;13.55;;;6.60;90.40;;;;;;5035167;28;20579;-78
2021/03/25 07:17:54;;;;;;;53.58;24.50;;;6.70;89.70;;;;;;5028835;28;20037;-78
2021/03/25 07:20:31;;;;;;;50.90;23.42;;;6.80;90.30;;;;;;5055500;28;20333;-78
2021/03/25 07:23:08;;;;;;;44.47;20.73;;;7.00;89.70;;;;;;5014339;28;20071;-78
2021/03/25 07:25:41;;;;;;;47.47;23.23;;;7.20;88.10;;;;;;5027154;28;20442;-78
2021/03/25 07:28:15;;;;;;;55.97;25.92;;;7.30;90.10;;;;;;5011545;28;20033;-78
2021/03/25 07:30:59;;;;;;;49.60;22.42;;;7.50;89.60;;;;;;5013922;28;20040;-78
2021/03/25 07:33:27;;;;;;;55.28;24.02;;;7.70;89.30;;;;;;5035188;28;20029;-78
2021/03/25 07:36:05;;;;;;;46.05;20.08;;;7.90;89.90;;;;;;5033566;28;20033;-78
2021/03/25 07:38:36;;;;;;;57.28;25.90;;;8.00;89.20;;;;;;5022794;28;20525;-78
2021/03/25 07:41:20;;;;;;;49.22;22.83;;;8.20;89.80;;;;;;5036178;28;20068;-77
2021/03/25 07:44:02;;;;;;;38.08;19.23;;;8.40;89.00;;;;;;5052142;28;20039;-78
2021/03/25 07:46:34;;;;;;;40.53;20.88;;;8.50;89.20;;;;;;5050976;28;20645;-78
2021/03/25 07:49:05;;;;;;;31.45;15.93;;;8.70;87.60;;;;;;5051203;28;20674;-77
2021/03/25 07:51:47;;;;;;;37.67;18.25;;;8.80;86.70;;;;;;5031598;28;20107;-77
2021/03/25 07:54:25;;;;;;;46.97;25.27;;;9.00;87.00;;;;;;5049813;28;20056;-77
2021/03/25 07:56:59;;;;;;;38.75;19.80;;;9.00;86.70;;;;;;5030979;28;20091;-77
2021/03/25 07:59:29;;;;;;;33.00;16.75;;;9.20;87.50;;;;;;5049440;28;20037;-78
2021/03/25 08:01:55;;;;;;;42.08;18.55;;;9.30;86.20;;;;;;5025601;28;20059;-77
2021/03/25 08:04:29;;;;;;;39.88;17.55;;;9.30;86.00;;;;;;5031751;28;20032;-78
2021/03/25 08:07:06;;;;;;;35.05;16.63;;;9.40;85.60;;;;;;5049788;28;20037;-77
2021/03/25 08:09:47;;;;;;;39.40;18.27;;;9.60;85.70;;;;;;5036580;28;20021;-77
2021/03/25 08:12:33;;;;;;;35.25;16.35;;;9.60;86.00;;;;;;5042648;28;20041;-77
2021/03/25 08:15:08;;;;;;;31.58;16.27;;;9.80;85.30;;;;;;5030177;28;20568;-77
2021/03/25 08:17:43;;;;;;;48.20;21.20;;;10.00;84.40;;;;;;5050907;28;20024;-77
2021/03/25 08:20:36;;;;;;;31.27;17.40;;;10.10;83.30;;;;;;5030071;28;20400;-77
2021/03/25 08:23:19;;;;;;;34.67;17.75;;;10.20;83.40;;;;;;5053705;28;20044;-78
2021/03/25 08:25:57;;;;;;;41.88;18.83;;;10.30;82.20;;;;;;5031553;28;20108;-77
2021/03/25 08:28:25;;;;;;;42.60;21.25;;;10.30;82.60;;;;;;5028706;28;20378;-78
2021/03/25 08:31:09;;;;;;;38.22;19.77;;;10.60;88.90;;;;;;5056168;28;20119;-78
2021/03/25 08:33:48;;;;;;;41.65;22.38;;;10.70;83.10;;;;;;5055320;28;20527;-78
2021/03/25 08:36:37;;;;;;;38.15;20.13;;;10.90;89.00;;;;;;5013184;28;20159;-77
2021/03/25 08:39:02;;;;;;;38.75;19.45;;;11.20;89.40;;;;;;5054137;28;20044;-78
2021/03/25 08:41:44;;;;;;;43.53;21.48;;;11.30;87.70;;;;;;5059882;28;20063;-78
2021/03/25 08:44:25;;;;;;;35.45;18.75;;;11.40;89.50;;;;;;5026128;28;20689;-77
2021/03/25 08:46:55;;;;;;;33.75;17.30;;;11.40;83.50;;;;;;5053566;28;20033;-77
2021/03/25 08:49:27;;;;;;;52.40;22.77;;;11.40;83.30;;;;;;5022037;28;20082;-78
2021/03/25 08:51:52;;;;;;;35.75;18.65;;;11.40;83.00;;;;;;5023382;28;20025;-78
2021/03/25 08:54:28;;;;;;;41.20;18.52;;;11.50;82.40;;;;;;5017307;28;20480;-77
2021/03/25 08:57:06;;;;;;;;;;;11.80;85.20;;;;;;5035484;28;20377;-78
2021/03/25 08:59:42;;;;;;;36.80;18.75;;;12.00;88.50;;;;;;5053936;28;20371;-77
2021/03/25 09:02:14;;;;;;;34.45;18.35;;;12.00;81.10;;;;;;5030993;28;20045;-78
2021/03/25 09:05:08;;;;;;;47.75;24.27;;;12.10;84.70;;;;;;5015733;28;20422;-78
2021/03/25 09:07:34;;;;;;;45.75;21.23;;;12.50;88.90;;;;;;5055218;28;20028;-78
2021/03/25 09:10:13;;;;;;;37.35;19.25;;;12.30;83.20;;;;;;5024507;28;20082;-78
2021/03/25 09:12:38;;;;;;;42.45;19.83;;;12.30;82.30;;;;;;5015810;28;20032;-78
2021/03/25 09:15:07;;;;;;;39.58;19.77;;;12.40;80.60;;;;;;5045850;28;20036;-78
2021/03/25 09:17:37;;;;;;;38.25;21.20;;;12.40;80.10;;;;;;5017140;28;20060;-78
2021/03/25 09:20:08;;;;;;;45.58;23.33;;;12.70;86.60;;;;;;5026618;28;20526;-78
2021/03/25 09:22:56;;;;;;;38.38;19.92;;;13.00;87.80;;;;;;5024264;28;20032;-78
2021/03/25 09:25:25;;;;;;;44.35;23.35;;;13.20;84.20;;;;;;5039464;28;20043;-78
2021/03/25 09:28:11;;;;;;;37.78;19.33;;;13.20;85.50;;;;;;5053442;28;20048;-78
2021/03/25 09:30:45;;;;;;;42.38;24.02;;;13.30;80.10;;;;;;5025577;28;20369;-78
2021/03/25 09:33:44;;;;;;;42.10;20.98;;;13.60;89.00;;;;;;5015054;28;20047;-78
2021/03/25 09:36:33;;;;;;;45.88;22.42;;;13.50;78.80;;;;;;5036645;28;20390;-78
2021/03/25 09:38:58;;;;;;;44.80;22.42;;;13.30;77.50;;;;;;5043990;28;20048;-78
2021/03/25 09:41:28;;;;;;;40.80;21.20;;;13.20;77.90;;;;;;5062595;28;20033;-78
2021/03/25 09:44:08;;;;;;;48.17;23.48;;;13.60;83.80;;;;;;5053709;28;20037;-78
2021/03/25 09:46:40;;;;;;;56.97;28.88;;;14.00;87.10;;;;;;5056317;28;20075;-78
2021/03/25 09:49:27;;;;;;;51.92;27.70;;;14.40;87.10;;;;;;5065621;28;20321;-78
2021/03/25 09:52:11;;;;;;;45.15;23.75;;;14.50;85.70;;;;;;5053065;28;20040;-78
2021/03/25 09:54:44;;;;;;;43.72;21.30;;;14.70;82.90;;;;;;5062448;28;20036;-78
2021/03/25 09:57:30;;;;;;;47.60;25.17;;;14.20;79.60;;;;;;5038230;28;20060;-78
2021/03/25 10:00:35;;;;;;;;;;;14.10;80.20;;;;;;5048384;28;20405;-79
2021/03/25 10:03:04;;;;;;;38.33;20.17;;;14.20;80.60;;;;;;4950846;28;19944;-79
2021/03/25 10:05:36;;;;;;;43.10;22.02;;;14.40;77.10;;;;;;4945748;28;20095;-79
2021/03/25 10:08:16;;;;;;;36.95;18.02;;;14.40;78.70;;;;;;5011563;28;20139;-79
2021/03/25 10:10:43;;;;;;;56.20;30.67;;;14.30;79.60;;;;;;5048752;28;20028;-79
2021/03/25 10:13:09;;;;;;;52.08;27.55;;;14.40;79.80;;;;;;5040777;28;20559;-79
2021/03/25 10:15:41;;;;;;;57.75;29.25;;;14.60;78.40;;;;;;5057087;28;20074;-79
2021/03/25 10:18:13;;;;;;;47.85;25.75;;;14.60;77.40;;;;;;5053305;28;20036;-79
2021/03/25 10:20:44;;;;;;;64.80;35.05;;;14.90;76.90;;;;;;5053818;28;20064;-79
2021/03/25 10:23:28;;;;;;;58.95;29.13;;;15.00;79.60;;;;;;5073308;28;20038;-78
2021/03/25 10:26:03;;;;;;;60.92;32.88;;;15.30;75.50;;;;;;5050413;28;20071;-79
2021/03/25 10:28:33;;;;;;;62.95;35.30;;;15.50;76.50;;;;;;5033406;28;20071;-79
2021/03/25 10:31:08;;;;;;;44.35;24.42;;;14.90;79.90;;;;;;5026106;28;20051;-79
2021/03/25 10:33:35;;;;;;;52.38;24.73;;;15.20;78.00;;;;;;5021057;28;20028;-79
2021/03/25 10:36:03;;;;;;;47.58;23.73;;;15.40;76.90;;;;;;5016155;28;20507;-79
2021/03/25 10:38:31;;;;;;;46.72;25.63;;;15.10;78.00;;;;;;5015661;28;20475;-79
2021/03/25 10:40:59;;;;;;;50.67;24.02;;;16.20;73.40;;;;;;5039714;28;20336;-79
2021/03/25 10:43:32;;;;;;;55.72;27.02;;;16.80;68.20;;;;;;5036039;28;20488;-79
2021/03/25 10:45:58;;;;;;;49.92;26.13;;;17.00;67.40;;;;;;5016431;28;20547;-78
2021/03/25 10:48:34;;;;;;;57.03;30.15;;;17.00;66.50;;;;;;5049090;28;20029;-79
2021/03/25 10:51:05;;;;;;;66.05;35.97;;;17.10;64.50;;;;;;5032873;28;20086;-78
2021/03/25 10:53:36;;;;;;;59.00;29.95;;;16.30;70.00;;;;;;5021721;28;20446;-79
2021/03/25 10:56:05;;;;;;;55.40;29.92;;;16.80;66.40;;;;;;5014986;28;20038;-79
2021/03/25 10:58:34;;;;;;;60.58;32.05;;;16.80;68.90;;;;;;5027818;28;20445;-79
2021/03/25 11:01:14;;;;;;;52.70;27.30;;;17.00;66.00;;;;;;5021952;28;20032;-78
2021/03/25 11:03:40;;;;;;;54.88;27.42;;;16.90;67.70;;;;;;5013909;28;20040;-78
2021/03/25 11:06:07;;;;;;;53.75;25.67;;;16.90;67.50;;;;;;5024473;28;20037;-78
2021/03/25 11:08:39;;;;;;;54.80;29.30;;;17.50;62.70;;;;;;5037656;28;20033;-78
2021/03/25 11:11:14;;;;;;;44.97;27.92;;;17.90;61.60;;;;;;5011308;28;20048;-78
2021/03/25 11:13:40;;;;;;;43.60;24.67;;;17.80;60.70;;;;;;5016204;28;20043;-78
2021/03/25 11:16:19;;;;;;;52.10;26.63;;;17.90;62.70;;;;;;5013311;28;20041;-78
2021/03/25 11:19:06;;;;;;;49.10;26.25;;;17.90;62.60;;;;;;5040025;28;20381;-78
2021/03/25 11:21:36;;;;;;;43.30;21.88;;;18.40;60.30;;;;;;5030187;28;20106;-78
2021/03/25 11:24:11;;;;;;;44.83;21.38;;;17.90;61.20;;;;;;5011411;28;20040;-78
2021/03/25 11:26:37;;;;;;;52.83;29.42;;;17.60;64.20;;;;;;5019597;28;20082;-78
2021/03/25 11:29:05;;;;;;;42.20;22.38;;;17.40;65.30;;;;;;5027615;28;20041;-78
2021/03/25 11:31:31;;;;;;;48.17;28.10;;;17.80;64.40;;;;;;5026651;28;20113;-78
2021/03/25 11:33:57;;;;;;;49.92;25.88;;;17.40;65.90;;;;;;5010142;28;20048;-78
2021/03/25 11:36:44;;;;;;;35.08;18.20;;;17.30;67.70;;;;;;5019580;28;20037;-78
2021/03/25 11:39:21;;;;;;;39.97;22.50;;;18.00;63.30;;;;;;5023777;28;20045;-78
2021/03/25 11:41:49;;;;;;;46.88;20.58;;;18.90;60.70;;;;;;5016743;28;20090;-78
2021/03/25 11:44:37;;;;;;;33.45;20.75;;;19.10;59.60;;;;;;5011017;28;20112;-78
2021/03/25 11:47:23;;;;;;;32.17;19.90;;;19.20;57.30;;;;;;5037376;28;20259;-79
2021/03/25 11:49:49;;;;;;;40.50;21.63;;;19.10;58.30;;;;;;5035004;28;20028;-79
2021/03/25 11:52:14;;;;;;;35.47;19.05;;;18.90;59.30;;;;;;5006959;28;20037;-79
2021/03/25 11:54:42;;;;;;;30.45;18.35;;;19.20;59.00;;;;;;5006121;28;20101;-79
2021/03/25 11:57:24;;;;;;;29.83;16.58;;;18.90;60.00;;;;;;5021967;28;20032;-79
2021/03/25 12:00:02;;;;;;;33.55;20.52;;;18.80;61.60;;;;;;5022428;28;20045;-79
2021/03/25 12:02:29;;;;;;;27.95;16.88;;;19.00;60.00;;;;;;5016261;28;20037;-79
2021/03/25 12:04:56;;;;;;;37.42;20.20;;;18.60;63.40;;;;;;5034467;28;20035;-79
2021/03/25 12:07:26;;;;;;;24.02;14.82;;;19.10;61.70;;;;;;5018101;28;20387;-79
2021/03/25 12:10:11;;;;;;;33.33;16.40;;;19.70;59.30;;;;;;5026619;28;20442;-79
2021/03/25 12:12:36;;;;;;;27.75;16.20;;;20.50;55.10;;;;;;5051335;28;20386;-79
2021/03/25 12:15:02;;;;;;;31.90;16.35;;;21.00;54.50;;;;;;5024537;28;20037;-79
2021/03/25 12:17:28;;;;;;;29.83;17.02;;;20.80;53.90;;;;;;5021553;28;20035;-79
2021/03/25 12:19:53;;;;;;;24.38;13.15;;;20.70;54.80;;;;;;5026524;28;20114;-79
2021/03/25 12:22:27;;;;;;;27.80;17.02;;;20.60;54.30;;;;;;5029337;28;20021;-79
2021/03/25 12:24:52;;;;;;;37.53;20.13;;;20.50;55.70;;;;;;5012398;28;20037;-79
2021/03/25 12:27:21;;;;;;;33.03;18.02;;;21.10;52.90;;;;;;5027835;28;20036;-79
2021/03/25 12:29:46;;;;;;;31.80;18.02;;;21.20;52.20;;;;;;5032493;28;20037;-79
2021/03/25 12:32:13;;;;;;;27.83;15.50;;;20.90;52.90;;;;;;5030074;28;20421;-79
2021/03/25 12:34:39;;;;;;;28.27;15.70;;;20.80;53.90;;;;;;5035695;28;20044;-79
2021/03/25 12:37:04;;;;;;;27.77;16.17;;;21.30;51.10;;;;;;5037228;28;20041;-79
2021/03/25 12:39:30;;;;;;;27.02;15.68;;;21.10;51.80;;;;;;5045146;28;20394;-79
2021/03/25 12:41:57;;;;;;;25.58;13.77;;;21.10;51.60;;;;;;5025809;28;20034;-79
2021/03/25 12:44:23;;;;;;;26.10;17.35;;;21.30;51.30;;;;;;5040059;28;20024;-79
2021/03/25 12:46:48;;;;;;;28.95;18.95;;;21.50;51.00;;;;;;5045918;28;20473;-79
2021/03/25 12:49:14;;;;;;;27.13;16.02;;;21.60;50.10;;;;;;5047440;28;20036;-79
2021/03/25 12:51:39;;;;;;;28.35;15.45;;;21.40;50.40;;;;;;5030453;28;20032;-79
2021/03/25 12:54:05;;;;;;;22.52;13.68;;;21.30;51.50;;;;;;5051562;28;20032;-79
2021/03/25 12:56:33;;;;;;;20.52;14.38;;;21.30;51.10;;;;;;5030806;28;20384;-79
2021/03/25 12:59:08;;;;;;;33.47;17.30;;;20.90;51.20;;;;;;5014789;28;20078;-77
2021/03/25 13:01:33;;;;;;;24.60;15.73;;;21.40;50.00;;;;;;5037913;28;20029;-78
2021/03/25 13:03:59;;;;;;;24.52;14.98;;;21.10;52.10;;;;;;5034608;28;20039;-78
2021/03/25 13:06:25;;;;;;;24.98;15.90;;;21.70;50.40;;;;;;5034023;28;20120;-78